sensor_id;sensor_type;location;lat;lon;timestamp;pressure;altitude;pressure_sealevel;temperature;humidity
55604;BME280;41468;48.838;9.330;2023-02-22T00:00:53;98249.22;;;6.91;88.29
55604;BME280;41468;48.838;9.330;2023-02-22T00:03:24;98245.66;;;7.03;87.65
55604;BME280;41468;48.838;9.330;2023-02-22T00:05:56;98246.94;;;6.93;87.13
55604;BME280;41468;48.838;9.330;2023-02-22T00:08:37;98245.34;;;6.92;86.50
55604;BME280;41468;48.838;9.330;2023-02-22T00:11:07;98252.56;;;6.72;86.88
55604;BME280;41468;48.838;9.330;2023-02-22T00:13:35;98250.63;;;6.60;86.66
55604;BME280;41468;48.838;9.330;2023-02-22T00:16:07;98241.16;;;6.54;86.56
55604;BME280;41468;48.838;9.330;2023-02-22T00:18:34;98245.03;;;6.53;86.77
55604;BME280;41468;48.838;9.330;2023-02-22T00:21:00;98243.66;;;6.47;86.80
55604;BME280;41468;48.838;9.330;2023-02-22T00:23:42;98242.53;;;6.48;86.24
55604;BME280;41468;48.838;9.330;2023-02-22T00:26:18;98238.47;;;6.42;86.25
55604;BME280;41468;48.838;9.330;2023-02-22T00:28:52;98244.16;;;6.25;87.15
55604;BME280;41468;48.838;9.330;2023-02-22T00:31:20;98239.75;;;6.08;87.27
55604;BME280;41468;48.838;9.330;2023-02-22T00:33:52;98244.38;;;6.19;86.16
55604;BME280;41468;48.838;9.330;2023-02-22T00:36:23;98243.25;;;5.96;87.40
55604;BME280;41468;48.838;9.330;2023-02-22T00:39:00;98253.94;;;5.92;88.10
55604;BME280;41468;48.838;9.330;2023-02-22T00:41:27;98248.22;;;5.94;87.98
55604;BME280;41468;48.838;9.330;2023-02-22T00:43:53;98241.84;;;5.78;89.44
55604;BME280;41468;48.838;9.330;2023-02-22T00:46:20;98239.41;;;6.22;88.60
55604;BME280;41468;48.838;9.330;2023-02-22T00:48:47;98233.75;;;6.14;88.62
55604;BME280;41468;48.838;9.330;2023-02-22T00:51:13;98240.19;;;6.10;88.87
55604;BME280;41468;48.838;9.330;2023-02-22T00:53:40;98243.50;;;6.15;89.14
55604;BME280;41468;48.838;9.330;2023-02-22T00:56:07;98242.44;;;6.20;88.06
55604;BME280;41468;48.838;9.330;2023-02-22T00:58:33;98240.28;;;6.26;88.39
55604;BME280;41468;48.838;9.330;2023-02-22T01:01:00;98240.97;;;6.35;88.62
55604;BME280;41468;48.838;9.330;2023-02-22T01:03:27;98229.44;;;6.50;87.31
55604;BME280;41468;48.838;9.330;2023-02-22T01:05:53;98233.53;;;6.32;87.96
55604;BME280;41468;48.838;9.330;2023-02-22T01:08:20;98234.72;;;6.47;87.93
55604;BME280;41468;48.838;9.330;2023-02-22T01:10:47;98232.47;;;6.49;87.34
55604;BME280;41468;48.838;9.330;2023-02-22T01:13:20;98216.09;;;6.45;87.66
55604;BME280;41468;48.838;9.330;2023-02-22T01:15:48;98215.97;;;6.41;88.16
55604;BME280;41468;48.838;9.330;2023-02-22T01:18:15;98214.97;;;6.34;88.82
55604;BME280;41468;48.838;9.330;2023-02-22T01:20:42;98206.28;;;6.28;89.37
55604;BME280;41468;48.838;9.330;2023-02-22T01:23:13;98214.78;;;6.27;89.78
55604;BME280;41468;48.838;9.330;2023-02-22T01:25:42;98205.41;;;6.24;90.70
55604;BME280;41468;48.838;9.330;2023-02-22T01:28:10;98199.53;;;6.10;90.75
55604;BME280;41468;48.838;9.330;2023-02-22T01:30:36;98199.88;;;6.08;90.92
55604;BME280;41468;48.838;9.330;2023-02-22T01:33:05;98204.97;;;5.97;91.20
55604;BME280;41468;48.838;9.330;2023-02-22T01:35:37;98205.84;;;6.02;91.10
55604;BME280;41468;48.838;9.330;2023-02-22T01:38:06;98201.09;;;5.86;92.24
55604;BME280;41468;48.838;9.330;2023-02-22T01:40:36;98196.69;;;5.82;92.34
55604;BME280;41468;48.838;9.330;2023-02-22T01:43:23;98198.50;;;5.78;92.05
55604;BME280;41468;48.838;9.330;2023-02-22T01:46:00;98190.59;;;5.72;92.39
55604;BME280;41468;48.838;9.330;2023-02-22T01:48:48;98191.84;;;5.75;92.25
55604;BME280;41468;48.838;9.330;2023-02-22T01:51:29;98193.41;;;5.64;93.06
55604;BME280;41468;48.838;9.330;2023-02-22T01:54:02;98183.81;;;5.54;93.79
55604;BME280;41468;48.838;9.330;2023-02-22T01:56:47;98191.25;;;5.57;94.09
55604;BME280;41468;48.838;9.330;2023-02-22T01:59:16;98185.50;;;5.59;94.39
55604;BME280;41468;48.838;9.330;2023-02-22T02:01:44;98178.41;;;5.54;94.95
55604;BME280;41468;48.838;9.330;2023-02-22T02:04:15;98172.19;;;5.53;94.75
55604;BME280;41468;48.838;9.330;2023-02-22T02:06:48;98171.63;;;5.60;94.08
55604;BME280;41468;48.838;9.330;2023-02-22T02:09:35;98170.28;;;5.54;93.97
55604;BME280;41468;48.838;9.330;2023-02-22T02:12:10;98168.91;;;5.48;94.38
55604;BME280;41468;48.838;9.330;2023-02-22T02:14:42;98173.66;;;5.51;93.69
55604;BME280;41468;48.838;9.330;2023-02-22T02:17:12;98167.34;;;5.59;93.09
55604;BME280;41468;48.838;9.330;2023-02-22T02:22:41;98161.13;;;5.71;92.62
55604;BME280;41468;48.838;9.330;2023-02-22T02:28:08;98153.78;;;5.71;92.30
55604;BME280;41468;48.838;9.330;2023-02-22T02:31:05;98148.06;;;5.73;92.43
55604;BME280;41468;48.838;9.330;2023-02-22T02:33:47;98140.50;;;5.54;93.79
55604;BME280;41468;48.838;9.330;2023-02-22T02:36:18;98140.50;;;5.54;93.76
55604;BME280;41468;48.838;9.330;2023-02-22T02:41:49;98138.56;;;5.54;94.38
55604;BME280;41468;48.838;9.330;2023-02-22T02:44:30;98138.69;;;5.46;95.25
55604;BME280;41468;48.838;9.330;2023-02-22T02:47:04;98135.75;;;5.51;95.03
55604;BME280;41468;48.838;9.330;2023-02-22T02:49:40;98130.53;;;5.58;94.85
55604;BME280;41468;48.838;9.330;2023-02-22T02:52:11;98130.88;;;5.69;94.23
55604;BME280;41468;48.838;9.330;2023-02-22T02:54:40;98123.09;;;5.67;93.99
55604;BME280;41468;48.838;9.330;2023-02-22T02:57:07;98122.97;;;5.64;93.84
55604;BME280;41468;48.838;9.330;2023-02-22T02:59:36;98118.81;;;5.66;93.83
55604;BME280;41468;48.838;9.330;2023-02-22T03:10:20;98105.25;;;5.79;91.76
55604;BME280;41468;48.838;9.330;2023-02-22T03:13:23;98109.56;;;5.67;91.74
55604;BME280;41468;48.838;9.330;2023-02-22T03:16:08;98104.16;;;5.67;91.67
55604;BME280;41468;48.838;9.330;2023-02-22T03:21:31;98100.53;;;5.51;91.58
55604;BME280;41468;48.838;9.330;2023-02-22T03:24:06;98088.34;;;5.45;91.40
55604;BME280;41468;48.838;9.330;2023-02-22T03:26:41;98096.03;;;5.43;91.25
55604;BME280;41468;48.838;9.330;2023-02-22T03:29:10;98096.03;;;5.30;91.61
55604;BME280;41468;48.838;9.330;2023-02-22T03:31:41;98087.44;;;5.28;92.16
55604;BME280;41468;48.838;9.330;2023-02-22T03:34:19;98086.97;;;5.26;92.36
55604;BME280;41468;48.838;9.330;2023-02-22T03:36:52;98085.31;;;5.22;93.07
55604;BME280;41468;48.838;9.330;2023-02-22T03:39:34;98083.94;;;5.28;93.07
55604;BME280;41468;48.838;9.330;2023-02-22T03:42:15;98088.56;;;5.27;93.08
55604;BME280;41468;48.838;9.330;2023-02-22T03:44:44;98087.44;;;5.28;93.25
55604;BME280;41468;48.838;9.330;2023-02-22T03:47:22;98090.16;;;5.41;92.42
55604;BME280;41468;48.838;9.330;2023-02-22T03:50:02;98089.47;;;5.44;92.09
55604;BME280;41468;48.838;9.330;2023-02-22T03:52:33;98092.66;;;5.46;92.11
55604;BME280;41468;48.838;9.330;2023-02-22T03:55:02;98099.16;;;5.45;92.04
55604;BME280;41468;48.838;9.330;2023-02-22T03:57:36;98088.56;;;5.40;92.62
55604;BME280;41468;48.838;9.330;2023-02-22T04:00:07;98091.50;;;5.47;92.24
55604;BME280;41468;48.838;9.330;2023-02-22T04:02:34;98096.91;;;5.47;92.11
55604;BME280;41468;48.838;9.330;2023-02-22T04:05:01;98088.25;;;5.41;92.41
55604;BME280;41468;48.838;9.330;2023-02-22T04:07:40;98089.03;;;5.42;92.57
55604;BME280;41468;48.838;9.330;2023-02-22T04:10:09;98083.81;;;5.37;93.20
55604;BME280;41468;48.838;9.330;2023-02-22T04:12:36;98090.63;;;5.43;92.45
55604;BME280;41468;48.838;9.330;2023-02-22T04:15:19;98088.91;;;5.50;91.95
55604;BME280;41468;48.838;9.330;2023-02-22T04:17:46;98083.06;;;5.48;91.92
55604;BME280;41468;48.838;9.330;2023-02-22T04:20:13;98089.03;;;5.54;91.49
55604;BME280;41468;48.838;9.330;2023-02-22T04:22:45;98086.66;;;5.52;91.60
55604;BME280;41468;48.838;9.330;2023-02-22T04:25:24;98087.00;;;5.51;91.19
55604;BME280;41468;48.838;9.330;2023-02-22T04:27:51;98086.00;;;5.43;91.69
55604;BME280;41468;48.838;9.330;2023-02-22T04:30:18;98083.16;;;5.40;92.40
55604;BME280;41468;48.838;9.330;2023-02-22T04:32:50;98076.75;;;5.32;91.94
55604;BME280;41468;48.838;9.330;2023-02-22T04:35:17;98086.97;;;5.26;92.43
55604;BME280;41468;48.838;9.330;2023-02-22T04:37:44;98080.69;;;5.22;92.60
55604;BME280;41468;48.838;9.330;2023-02-22T04:40:21;98082.56;;;5.09;93.74
55604;BME280;41468;48.838;9.330;2023-02-22T04:42:48;98077.28;;;5.13;93.56
55604;BME280;41468;48.838;9.330;2023-02-22T04:45:14;98079.75;;;5.06;94.19
55604;BME280;41468;48.838;9.330;2023-02-22T04:47:41;98083.03;;;5.12;93.53
55604;BME280;41468;48.838;9.330;2023-02-22T04:50:08;98081.31;;;4.95;94.37
55604;BME280;41468;48.838;9.330;2023-02-22T04:52:41;98081.41;;;4.86;95.06
55604;BME280;41468;48.838;9.330;2023-02-22T04:55:08;98080.41;;;4.91;94.95
55604;BME280;41468;48.838;9.330;2023-02-22T04:57:41;98081.44;;;4.98;94.26
55604;BME280;41468;48.838;9.330;2023-02-22T05:00:08;98077.81;;;4.94;94.73
55604;BME280;41468;48.838;9.330;2023-02-22T05:02:38;98075.78;;;4.91;94.48
55604;BME280;41468;48.838;9.330;2023-02-22T05:05:11;98072.84;;;4.96;94.29
55604;BME280;41468;48.838;9.330;2023-02-22T05:07:38;98069.59;;;4.91;94.53
55604;BME280;41468;48.838;9.330;2023-02-22T05:10:05;98070.25;;;4.87;94.81
55604;BME280;41468;48.838;9.330;2023-02-22T05:12:37;98063.50;;;4.94;93.99
55604;BME280;41468;48.838;9.330;2023-02-22T05:15:04;98062.50;;;4.98;93.86
55604;BME280;41468;48.838;9.330;2023-02-22T05:17:33;98065.78;;;5.04;93.27
55604;BME280;41468;48.838;9.330;2023-02-22T05:19:59;98059.13;;;5.01;93.28
55604;BME280;41468;48.838;9.330;2023-02-22T05:22:31;98059.91;;;5.02;92.93
55604;BME280;41468;48.838;9.330;2023-02-22T05:24:57;98067.44;;;4.96;93.30
55604;BME280;41468;48.838;9.330;2023-02-22T05:27:24;98064.88;;;5.12;92.79
55604;BME280;41468;48.838;9.330;2023-02-22T05:29:55;98061.06;;;5.13;91.75
55604;BME280;41468;48.838;9.330;2023-02-22T05:32:22;98058.44;;;5.04;91.74
55604;BME280;41468;48.838;9.330;2023-02-22T05:34:48;98065.66;;;5.00;91.76
55604;BME280;41468;48.838;9.330;2023-02-22T05:37:15;98059.13;;;4.89;91.60
55604;BME280;41468;48.838;9.330;2023-02-22T05:39:42;98054.44;;;4.77;92.50
55604;BME280;41468;48.838;9.330;2023-02-22T05:42:08;98046.69;;;4.88;92.36
55604;BME280;41468;48.838;9.330;2023-02-22T05:44:41;98045.34;;;4.82;91.87
55604;BME280;41468;48.838;9.330;2023-02-22T05:47:07;98054.47;;;4.90;91.00
55604;BME280;41468;48.838;9.330;2023-02-22T05:49:45;98057.63;;;4.79;91.98
55604;BME280;41468;48.838;9.330;2023-02-22T05:52:12;98042.97;;;4.80;91.71
55604;BME280;41468;48.838;9.330;2023-02-22T05:54:39;98052.81;;;4.52;92.88
55604;BME280;41468;48.838;9.330;2023-02-22T05:57:05;98049.75;;;4.41;94.65
55604;BME280;41468;48.838;9.330;2023-02-22T05:59:32;98046.97;;;4.50;94.73
55604;BME280;41468;48.838;9.330;2023-02-22T06:02:10;98042.00;;;4.52;95.35
55604;BME280;41468;48.838;9.330;2023-02-22T06:04:36;98045.09;;;4.62;94.91
55604;BME280;41468;48.838;9.330;2023-02-22T06:07:03;98049.91;;;4.57;95.22
55604;BME280;41468;48.838;9.330;2023-02-22T06:09:29;98052.94;;;4.55;95.82
55604;BME280;41468;48.838;9.330;2023-02-22T06:12:07;98047.22;;;4.57;95.58
55604;BME280;41468;48.838;9.330;2023-02-22T06:14:35;98047.91;;;4.66;94.50
55604;BME280;41468;48.838;9.330;2023-02-22T06:17:01;98049.91;;;4.57;95.09
55604;BME280;41468;48.838;9.330;2023-02-22T06:19:28;98044.06;;;4.67;95.26
55604;BME280;41468;48.838;9.330;2023-02-22T06:21:56;98053.22;;;4.75;94.81
55604;BME280;41468;48.838;9.330;2023-02-22T06:24:32;98051.53;;;4.82;94.46
55604;BME280;41468;48.838;9.330;2023-02-22T06:27:00;98056.84;;;4.91;93.56
55604;BME280;41468;48.838;9.330;2023-02-22T06:29:38;98049.53;;;5.04;92.99
55604;BME280;41468;48.838;9.330;2023-02-22T06:32:04;98051.34;;;5.00;93.45
55604;BME280;41468;48.838;9.330;2023-02-22T06:34:39;98056.41;;;5.01;93.65
55604;BME280;41468;48.838;9.330;2023-02-22T06:37:13;98062.97;;;5.00;93.34
55604;BME280;41468;48.838;9.330;2023-02-22T06:39:51;98054.72;;;5.09;93.19
55604;BME280;41468;48.838;9.330;2023-02-22T06:42:17;98052.69;;;5.18;92.07
55604;BME280;41468;48.838;9.330;2023-02-22T06:44:44;98063.06;;;5.28;91.52
55604;BME280;41468;48.838;9.330;2023-02-22T06:47:10;98058.44;;;5.29;91.71
55604;BME280;41468;48.838;9.330;2023-02-22T06:49:37;98068.81;;;5.39;91.24
55604;BME280;41468;48.838;9.330;2023-02-22T06:52:07;98061.84;;;5.38;91.11
55604;BME280;41468;48.838;9.330;2023-02-22T06:54:39;98057.22;;;5.51;90.48
55604;BME280;41468;48.838;9.330;2023-02-22T06:57:05;98070.16;;;5.45;91.02
55604;BME280;41468;48.838;9.330;2023-02-22T06:59:45;98071.63;;;5.55;90.52
55604;BME280;41468;48.838;9.330;2023-02-22T07:02:17;98071.88;;;5.62;89.89
55604;BME280;41468;48.838;9.330;2023-02-22T07:04:55;98078.41;;;5.61;89.75
55604;BME280;41468;48.838;9.330;2023-02-22T07:07:22;98079.78;;;5.67;89.65
55604;BME280;41468;48.838;9.330;2023-02-22T07:09:50;98072.97;;;5.73;88.95
55604;BME280;41468;48.838;9.330;2023-02-22T07:12:17;98077.69;;;6.01;89.44
55604;BME280;41468;48.838;9.330;2023-02-22T07:14:43;98072.94;;;5.98;87.10
55604;BME280;41468;48.838;9.330;2023-02-22T07:17:10;98067.63;;;6.02;87.77
55604;BME280;41468;48.838;9.330;2023-02-22T07:19:37;98080.75;;;6.00;87.81
55604;BME280;41468;48.838;9.330;2023-02-22T07:22:03;98074.78;;;5.94;87.72
55604;BME280;41468;48.838;9.330;2023-02-22T07:24:31;98077.59;;;5.97;87.34
55604;BME280;41468;48.838;9.330;2023-02-22T07:27:00;98081.28;;;5.93;87.26
55604;BME280;41468;48.838;9.330;2023-02-22T07:29:27;98083.69;;;5.94;87.89
55604;BME280;41468;48.838;9.330;2023-02-22T07:31:54;98083.22;;;5.92;87.41
55604;BME280;41468;48.838;9.330;2023-02-22T07:34:23;98077.25;;;5.87;87.53
55604;BME280;41468;48.838;9.330;2023-02-22T07:36:49;98079.41;;;5.81;87.05
55604;BME280;41468;48.838;9.330;2023-02-22T07:39:16;98085.84;;;5.89;87.56
55604;BME280;41468;48.838;9.330;2023-02-22T07:41:42;98085.38;;;5.87;87.73
55604;BME280;41468;48.838;9.330;2023-02-22T07:44:09;98081.53;;;6.00;87.66
55604;BME280;41468;48.838;9.330;2023-02-22T07:46:35;98082.84;;;6.18;86.87
55604;BME280;41468;48.838;9.330;2023-02-22T07:49:03;98082.25;;;6.25;86.16
55604;BME280;41468;48.838;9.330;2023-02-22T07:51:29;98086.44;;;6.23;86.41
55604;BME280;41468;48.838;9.330;2023-02-22T07:53:56;98085.41;;;6.27;86.50
55604;BME280;41468;48.838;9.330;2023-02-22T07:56:22;98091.47;;;6.36;86.08
55604;BME280;41468;48.838;9.330;2023-02-22T07:58:49;98088.38;;;6.50;84.98
55604;BME280;41468;48.838;9.330;2023-02-22T08:01:15;98089.97;;;6.51;84.81
55604;BME280;41468;48.838;9.330;2023-02-22T08:03:42;98083.13;;;6.57;85.26
55604;BME280;41468;48.838;9.330;2023-02-22T08:06:12;98075.13;;;6.77;84.21
55604;BME280;41468;48.838;9.330;2023-02-22T08:08:39;98083.13;;;6.85;84.10
55604;BME280;41468;48.838;9.330;2023-02-22T08:11:06;98082.84;;;7.06;82.66
55604;BME280;41468;48.838;9.330;2023-02-22T08:13:33;98085.50;;;7.19;82.42
55604;BME280;41468;48.838;9.330;2023-02-22T08:16:04;98085.69;;;7.26;81.88
55604;BME280;41468;48.838;9.330;2023-02-22T08:18:31;98084.91;;;7.25;82.01
55604;BME280;41468;48.838;9.330;2023-02-22T08:20:57;98087.69;;;7.29;82.10
55604;BME280;41468;48.838;9.330;2023-02-22T08:23:25;98088.66;;;7.37;82.26
55604;BME280;41468;48.838;9.330;2023-02-22T08:25:52;98084.34;;;7.51;82.50
55604;BME280;41468;48.838;9.330;2023-02-22T08:28:21;98088.69;;;7.72;80.65
55604;BME280;41468;48.838;9.330;2023-02-22T08:30:49;98083.22;;;7.88;79.67
55604;BME280;41468;48.838;9.330;2023-02-22T08:33:16;98089.69;;;7.99;79.50
55604;BME280;41468;48.838;9.330;2023-02-22T08:35:46;98092.34;;;8.15;78.73
55604;BME280;41468;48.838;9.330;2023-02-22T08:38:27;98089.41;;;8.24;77.05
55604;BME280;41468;48.838;9.330;2023-02-22T08:40:55;98090.50;;;8.38;76.60
55604;BME280;41468;48.838;9.330;2023-02-22T08:43:22;98091.53;;;8.50;76.27
55604;BME280;41468;48.838;9.330;2023-02-22T08:45:49;98091.16;;;8.71;75.80
55604;BME280;41468;48.838;9.330;2023-02-22T08:48:17;98091.47;;;8.89;72.59
55604;BME280;41468;48.838;9.330;2023-02-22T08:50:45;98083.97;;;9.05;72.32
55604;BME280;41468;48.838;9.330;2023-02-22T08:53:14;98082.34;;;9.23;73.23
55604;BME280;41468;48.838;9.330;2023-02-22T08:55:41;98083.91;;;9.47;70.70
55604;BME280;41468;48.838;9.330;2023-02-22T08:58:08;98090.25;;;9.55;69.73
55604;BME280;41468;48.838;9.330;2023-02-22T09:00:37;98085.00;;;9.69;71.45
55604;BME280;41468;48.838;9.330;2023-02-22T09:03:10;98082.81;;;10.05;70.76
55604;BME280;41468;48.838;9.330;2023-02-22T09:05:39;98083.09;;;10.27;70.34
55604;BME280;41468;48.838;9.330;2023-02-22T09:08:06;98084.19;;;10.52;68.91
55604;BME280;41468;48.838;9.330;2023-02-22T09:10:33;98079.38;;;10.76;68.62
55604;BME280;41468;48.838;9.330;2023-02-22T09:13:07;98079.13;;;10.88;69.19
55604;BME280;41468;48.838;9.330;2023-02-22T09:15:34;98082.44;;;11.12;67.37
55604;BME280;41468;48.838;9.330;2023-02-22T09:18:02;98073.50;;;11.15;66.93
55604;BME280;41468;48.838;9.330;2023-02-22T09:20:29;98079.16;;;11.36;65.99
55604;BME280;41468;48.838;9.330;2023-02-22T09:22:56;98076.81;;;11.38;65.29
55604;BME280;41468;48.838;9.330;2023-02-22T09:25:22;98076.88;;;11.45;63.76
55604;BME280;41468;48.838;9.330;2023-02-22T09:27:51;98085.19;;;11.12;65.64
55604;BME280;41468;48.838;9.330;2023-02-22T09:30:24;98080.22;;;11.24;66.06
55604;BME280;41468;48.838;9.330;2023-02-22T09:32:52;98077.94;;;11.30;65.88
55604;BME280;41468;48.838;9.330;2023-02-22T09:35:21;98075.31;;;11.44;65.49
55604;BME280;41468;48.838;9.330;2023-02-22T09:37:54;98077.56;;;11.32;64.36
55604;BME280;41468;48.838;9.330;2023-02-22T09:40:21;98077.75;;;11.09;66.43
55604;BME280;41468;48.838;9.330;2023-02-22T09:48:18;98067.88;;;11.93;66.93
55604;BME280;41468;48.838;9.330;2023-02-22T09:50:48;98068.66;;;11.97;65.28
55604;BME280;41468;48.838;9.330;2023-02-22T09:53:28;98070.25;;;12.02;63.98
55604;BME280;41468;48.838;9.330;2023-02-22T09:56:04;98079.00;;;12.29;63.63
55604;BME280;41468;48.838;9.330;2023-02-22T09:58:34;98063.59;;;12.03;64.07
55604;BME280;41468;48.838;9.330;2023-02-22T10:04:03;98072.78;;;12.43;63.95
55604;BME280;41468;48.838;9.330;2023-02-22T10:06:31;98069.75;;;12.69;63.12
55604;BME280;41468;48.838;9.330;2023-02-22T10:09:00;98073.59;;;12.54;62.69
55604;BME280;41468;48.838;9.330;2023-02-22T10:11:53;98067.00;;;12.73;62.65
55604;BME280;41468;48.838;9.330;2023-02-22T10:14:51;98065.91;;;13.20;64.72
55604;BME280;41468;48.838;9.330;2023-02-22T10:17:42;98054.97;;;13.63;59.78
55604;BME280;41468;48.838;9.330;2023-02-22T10:20:41;98058.88;;;13.44;58.08
55604;BME280;41468;48.838;9.330;2023-02-22T10:23:40;98060.44;;;13.17;60.11
55604;BME280;41468;48.838;9.330;2023-02-22T10:26:19;98065.16;;;13.31;58.59
55604;BME280;41468;48.838;9.330;2023-02-22T10:28:59;98053.78;;;13.18;59.65
55604;BME280;41468;48.838;9.330;2023-02-22T10:31:30;98051.44;;;13.34;57.27
55604;BME280;41468;48.838;9.330;2023-02-22T10:34:01;98051.44;;;13.41;57.03
55604;BME280;41468;48.838;9.330;2023-02-22T10:36:29;98038.13;;;13.47;57.77
55604;BME280;41468;48.838;9.330;2023-02-22T10:39:15;98038.88;;;13.58;57.78
55604;BME280;41468;48.838;9.330;2023-02-22T10:41:50;98039.69;;;13.62;58.10
55604;BME280;41468;48.838;9.330;2023-02-22T10:44:19;98034.13;;;13.95;58.01
55604;BME280;41468;48.838;9.330;2023-02-22T10:46:46;98028.88;;;14.29;55.34
55604;BME280;41468;48.838;9.330;2023-02-22T10:49:19;98029.19;;;14.49;56.07
55604;BME280;41468;48.838;9.330;2023-02-22T10:52:00;98028.41;;;14.48;55.37
55604;BME280;41468;48.838;9.330;2023-02-22T10:54:31;98034.34;;;14.36;55.74
55604;BME280;41468;48.838;9.330;2023-02-22T10:56:59;98021.06;;;14.24;56.52
55604;BME280;41468;48.838;9.330;2023-02-22T10:59:32;98017.97;;;14.14;56.15
55604;BME280;41468;48.838;9.330;2023-02-22T11:02:29;98017.94;;;14.22;56.72
55604;BME280;41468;48.838;9.330;2023-02-22T11:04:58;98016.31;;;14.31;56.72
55604;BME280;41468;48.838;9.330;2023-02-22T11:07:31;98016.72;;;14.30;54.76
55604;BME280;41468;48.838;9.330;2023-02-22T11:10:03;98025.84;;;14.05;56.86
55604;BME280;41468;48.838;9.330;2023-02-22T11:12:34;98014.00;;;14.23;56.06
55604;BME280;41468;48.838;9.330;2023-02-22T11:17:56;98013.66;;;14.17;57.51
55604;BME280;41468;48.838;9.330;2023-02-22T11:20:26;98009.78;;;14.00;56.70
55604;BME280;41468;48.838;9.330;2023-02-22T11:22:55;98011.66;;;14.25;56.65
55604;BME280;41468;48.838;9.330;2023-02-22T11:25:26;98005.75;;;14.30;56.28
55604;BME280;41468;48.838;9.330;2023-02-22T11:27:53;98001.41;;;14.29;56.43
55604;BME280;41468;48.838;9.330;2023-02-22T11:32:56;97998.38;;;14.16;56.74
55604;BME280;41468;48.838;9.330;2023-02-22T11:38:08;97989.75;;;14.07;56.82
55604;BME280;41468;48.838;9.330;2023-02-22T11:40:35;97992.16;;;13.94;57.30
55604;BME280;41468;48.838;9.330;2023-02-22T11:43:14;97990.22;;;13.87;57.60
55604;BME280;41468;48.838;9.330;2023-02-22T11:46:00;97990.59;;;13.86;58.23
55604;BME280;41468;48.838;9.330;2023-02-22T11:48:33;97985.81;;;14.19;56.70
55604;BME280;41468;48.838;9.330;2023-02-22T11:51:12;97984.63;;;14.12;57.30
55604;BME280;41468;48.838;9.330;2023-02-22T11:56:44;97978.75;;;14.14;57.27
55604;BME280;41468;48.838;9.330;2023-02-22T12:02:18;97981.03;;;14.26;56.93
55604;BME280;41468;48.838;9.330;2023-02-22T12:07:27;97967.31;;;14.30;56.73
55604;BME280;41468;48.838;9.330;2023-02-22T12:10:30;97972.38;;;14.31;55.96
55604;BME280;41468;48.838;9.330;2023-02-22T12:18:40;97958.59;;;14.46;56.49
55604;BME280;41468;48.838;9.330;2023-02-22T12:21:12;97946.44;;;14.43;55.14
55604;BME280;41468;48.838;9.330;2023-02-22T12:23:54;97940.22;;;14.28;54.61
55604;BME280;41468;48.838;9.330;2023-02-22T12:26:27;97946.84;;;14.38;53.67
55604;BME280;41468;48.838;9.330;2023-02-22T12:29:11;97947.84;;;14.69;53.80
55604;BME280;41468;48.838;9.330;2023-02-22T12:31:46;97933.94;;;14.91;53.96
55604;BME280;41468;48.838;9.330;2023-02-22T12:42:35;97943.16;;;14.70;54.79
55604;BME280;41468;48.838;9.330;2023-02-22T12:45:19;97936.69;;;14.31;55.82
55604;BME280;41468;48.838;9.330;2023-02-22T12:47:56;97938.63;;;14.34;55.46
55604;BME280;41468;48.838;9.330;2023-02-22T12:50:28;97935.22;;;14.12;56.04
55604;BME280;41468;48.838;9.330;2023-02-22T12:53:25;97938.00;;;14.09;57.03
55604;BME280;41468;48.838;9.330;2023-02-22T12:55:59;97932.16;;;13.96;56.66
55604;BME280;41468;48.838;9.330;2023-02-22T12:58:44;97934.56;;;13.87;57.16
55604;BME280;41468;48.838;9.330;2023-02-22T13:01:17;97936.91;;;13.85;58.04
55604;BME280;41468;48.838;9.330;2023-02-22T13:03:47;97929.88;;;13.84;58.74
55604;BME280;41468;48.838;9.330;2023-02-22T13:11:42;97923.59;;;13.87;58.17
55604;BME280;41468;48.838;9.330;2023-02-22T13:20:15;97916.97;;;13.74;60.55
55604;BME280;41468;48.838;9.330;2023-02-22T13:22:48;97918.94;;;13.69;60.41
55604;BME280;41468;48.838;9.330;2023-02-22T13:28:21;97909.91;;;13.73;60.41
55604;BME280;41468;48.838;9.330;2023-02-22T13:31:18;97914.63;;;13.76;61.14
55604;BME280;41468;48.838;9.330;2023-02-22T13:36:35;97914.63;;;13.68;61.52
55604;BME280;41468;48.838;9.330;2023-02-22T13:42:15;97915.13;;;14.30;59.86
55604;BME280;41468;48.838;9.330;2023-02-22T13:45:16;97911.91;;;14.42;59.16
55604;BME280;41468;48.838;9.330;2023-02-22T13:53:54;97902.88;;;14.97;57.24
55604;BME280;41468;48.838;9.330;2023-02-22T13:56:23;97902.00;;;15.04;57.12
55604;BME280;41468;48.838;9.330;2023-02-22T13:58:53;97898.47;;;15.07;56.96
55604;BME280;41468;48.838;9.330;2023-02-22T14:06:55;97904.97;;;14.79;56.96
55604;BME280;41468;48.838;9.330;2023-02-22T14:09:42;97898.75;;;14.75;56.53
55604;BME280;41468;48.838;9.330;2023-02-22T14:12:47;97901.25;;;14.51;57.80
55604;BME280;41468;48.838;9.330;2023-02-22T14:15:16;97904.81;;;14.48;58.62
55604;BME280;41468;48.838;9.330;2023-02-22T14:17:48;97901.66;;;14.50;58.75
55604;BME280;41468;48.838;9.330;2023-02-22T14:20:29;97896.22;;;14.39;59.58
55604;BME280;41468;48.838;9.330;2023-02-22T14:26:09;97898.75;;;14.12;62.55
55604;BME280;41468;48.838;9.330;2023-02-22T14:31:21;97895.66;;;14.06;59.80
55604;BME280;41468;48.838;9.330;2023-02-22T14:34:11;97896.47;;;14.00;59.91
55604;BME280;41468;48.838;9.330;2023-02-22T14:37:04;97889.41;;;13.99;60.62
55604;BME280;41468;48.838;9.330;2023-02-22T14:39:43;97902.31;;;14.05;60.76
55604;BME280;41468;48.838;9.330;2023-02-22T14:45:02;97894.16;;;13.95;62.06
55604;BME280;41468;48.838;9.330;2023-02-22T14:47:49;97898.44;;;13.96;61.58
55604;BME280;41468;48.838;9.330;2023-02-22T14:50:24;97894.94;;;13.91;61.61
55604;BME280;41468;48.838;9.330;2023-02-22T14:55:53;97896.09;;;13.94;61.43
55604;BME280;41468;48.838;9.330;2023-02-22T14:58:27;97895.69;;;13.96;61.03
55604;BME280;41468;48.838;9.330;2023-02-22T15:00:54;97894.50;;;14.00;60.52
55604;BME280;41468;48.838;9.330;2023-02-22T15:03:29;97897.25;;;14.00;61.35
55604;BME280;41468;48.838;9.330;2023-02-22T15:06:05;97895.72;;;13.92;61.79
55604;BME280;41468;48.838;9.330;2023-02-22T15:08:33;97895.75;;;13.85;61.70
55604;BME280;41468;48.838;9.330;2023-02-22T15:11:00;97889.13;;;13.79;61.19
55604;BME280;41468;48.838;9.330;2023-02-22T15:13:29;97895.81;;;13.70;61.96
55604;BME280;41468;48.838;9.330;2023-02-22T15:16:02;97893.06;;;13.67;61.88